Time;durP1;ratioP1;P1;durP2;ratioP2;P2;SDS_P1;SDS_P2;PMS_P1;PMS_P2;Temp;Humidity;BMP_temperature;BMP_pressure;BME280_temperature;BME280_humidity;BME280_pressure;Samples;Min_cycle;Max_cycle;Signal;HPM_P1;HPM_P2
2023/12/26 00:02:04;;;;;;;0.33;0.33;;;10.80;99.90;;;;;;7393799;19;20272;-74
2023/12/26 00:04:29;;;;;;;1.23;1.13;;;10.80;99.90;;;;;;7393174;19;20174;-74
2023/12/26 00:06:55;;;;;;;0.30;0.30;;;10.80;99.90;;;;;;7391253;19;20127;-74
2023/12/26 00:09:21;;;;;;;0.70;0.50;;;10.90;99.90;;;;;;7393258;19;20519;-75
2023/12/26 00:11:47;;;;;;;0.40;0.40;;;10.90;99.90;;;;;;7391149;19;20198;-75
2023/12/26 00:14:15;;;;;;;0.40;0.40;;;10.90;99.90;;;;;;7394629;19;20143;-74
2023/12/26 00:16:41;;;;;;;0.50;0.50;;;10.80;99.90;;;;;;7393060;19;20143;-74
2023/12/26 00:19:08;;;;;;;0.90;0.30;;;10.80;99.90;;;;;;7391573;19;20139;-74
2023/12/26 00:21:37;;;;;;;0.37;0.37;;;10.80;99.90;;;;;;7392329;19;20167;-74
2023/12/26 00:24:03;;;;;;;2.23;0.63;;;10.80;99.90;;;;;;7393731;19;20142;-74
2023/12/26 00:26:29;;;;;;;0.40;0.40;;;10.80;99.90;;;;;;7392374;19;20155;-75
2023/12/26 00:28:55;;;;;;;0.30;0.30;;;10.70;99.90;;;;;;7393736;19;20155;-73
2023/12/26 00:31:20;;;;;;;0.33;0.33;;;10.70;99.90;;;;;;7393476;19;20135;-74
2023/12/26 00:33:48;;;;;;;1.93;1.00;;;10.70;99.90;;;;;;7391405;19;20603;-74
2023/12/26 00:36:20;;;;;;;0.57;0.50;;;10.60;99.90;;;;;;7390027;19;20592;-75
2023/12/26 00:38:46;;;;;;;0.30;0.30;;;10.60;99.90;;;;;;7393547;19;20159;-75
2023/12/26 00:41:16;;;;;;;0.40;0.40;;;10.60;99.90;;;;;;7391871;19;20134;-74
2023/12/26 00:43:42;;;;;;;0.40;0.40;;;10.70;99.90;;;;;;7392974;19;20163;-74
2023/12/26 00:46:08;;;;;;;0.33;0.33;;;10.80;99.90;;;;;;7391503;19;20138;-73
2023/12/26 00:48:36;;;;;;;0.90;0.40;;;10.90;99.90;;;;;;7391071;19;20159;-74
2023/12/26 00:51:05;;;;;;;0.40;0.40;;;10.80;99.90;;;;;;7392484;19;20138;-74
2023/12/26 00:53:31;;;;;;;0.40;0.40;;;10.80;99.90;;;;;;7390540;19;20154;-74
2023/12/26 00:55:57;;;;;;;0.60;0.50;;;10.50;99.90;;;;;;7390561;19;20139;-74
2023/12/26 00:58:23;;;;;;;0.40;0.40;;;10.70;99.90;;;;;;7389280;19;20134;-75
2023/12/26 01:00:48;;;;;;;0.40;0.40;;;10.70;99.90;;;;;;7390780;19;20145;-73
2023/12/26 01:03:20;;;;;;;0.60;0.60;;;10.70;99.90;;;;;;7389798;19;20822;-74
2023/12/26 01:05:50;;;;;;;0.40;0.40;;;10.60;99.90;;;;;;7391984;19;20154;-74
2023/12/26 01:08:16;;;;;;;0.50;0.50;;;10.70;99.90;;;;;;7391140;19;20142;-74
2023/12/26 01:10:42;;;;;;;0.33;0.33;;;10.60;99.90;;;;;;7393945;19;20142;-74
2023/12/26 01:13:08;;;;;;;0.50;0.50;;;10.70;99.90;;;;;;7388913;19;20127;-74
2023/12/26 01:15:37;;;;;;;1.97;0.87;;;10.70;99.90;;;;;;7385865;19;20162;-74
2023/12/26 01:18:03;;;;;;;0.50;0.40;;;10.50;99.90;;;;;;7390253;19;20130;-74
2023/12/26 01:20:29;;;;;;;0.50;0.50;;;10.50;99.90;;;;;;7390967;19;20134;-74
2023/12/26 01:22:55;;;;;;;1.17;0.60;;;10.40;99.90;;;;;;7394524;19;20138;-76
2023/12/26 01:25:21;;;;;;;1.13;0.80;;;10.40;99.90;;;;;;7391437;19;20150;-75
2023/12/26 01:27:49;;;;;;;0.67;0.40;;;10.70;99.90;;;;;;7389922;19;20214;-75
2023/12/26 01:30:15;;;;;;;0.53;0.50;;;10.60;99.90;;;;;;7390753;19;20495;-75
2023/12/26 01:32:41;;;;;;;0.80;0.60;;;10.40;99.90;;;;;;7388910;19;20146;-76
2023/12/26 01:35:07;;;;;;;0.97;0.60;;;10.60;99.90;;;;;;7389342;19;20158;-75
2023/12/26 01:37:33;;;;;;;0.50;0.37;;;10.60;99.90;;;;;;7387913;19;20153;-75
2023/12/26 01:39:58;;;;;;;1.50;0.60;;;10.60;99.90;;;;;;7387725;19;20231;-76
2023/12/26 01:42:24;;;;;;;0.40;0.40;;;10.50;99.90;;;;;;7389255;19;20139;-74
2023/12/26 01:44:50;;;;;;;0.50;0.50;;;10.50;99.90;;;;;;7393632;19;20138;-74
2023/12/26 01:47:17;;;;;;;0.57;0.40;;;10.60;99.90;;;;;;7396832;19;20139;-74
2023/12/26 01:49:44;;;;;;;0.30;0.30;;;10.70;99.90;;;;;;7398758;19;20138;-75
2023/12/26 01:52:12;;;;;;;0.60;0.50;;;10.70;99.90;;;;;;7396650;19;20146;-74
2023/12/26 01:54:38;;;;;;;0.20;0.20;;;10.50;99.90;;;;;;7396663;19;20134;-74
2023/12/26 01:57:08;;;;;;;1.70;0.50;;;10.60;99.90;;;;;;7396640;19;20146;-74
2023/12/26 01:59:36;;;;;;;0.60;0.60;;;10.60;99.90;;;;;;7394771;19;20218;-74
2023/12/26 02:02:03;;;;;;;0.50;0.40;;;10.70;99.90;;;;;;7397655;19;20135;-75
2023/12/26 02:04:30;;;;;;;1.57;0.60;;;10.70;99.90;;;;;;7395769;19;20717;-75
2023/12/26 02:06:57;;;;;;;0.30;0.30;;;10.50;99.90;;;;;;7399119;19;20130;-74
2023/12/26 02:09:24;;;;;;;0.30;0.30;;;10.50;99.90;;;;;;7396415;19;20531;-74
2023/12/26 02:11:51;;;;;;;0.40;0.40;;;10.50;99.90;;;;;;7398374;19;20130;-74
2023/12/26 02:14:17;;;;;;;0.30;0.30;;;10.70;99.90;;;;;;7396608;19;20138;-74
2023/12/26 02:16:46;;;;;;;0.60;0.60;;;10.50;99.90;;;;;;7397448;19;20174;-74
2023/12/26 02:19:12;;;;;;;0.93;0.80;;;10.50;99.90;;;;;;7398083;19;20150;-74
2023/12/26 02:21:42;;;;;;;0.50;0.50;;;10.60;99.90;;;;;;7398912;19;20150;-75
2023/12/26 02:24:07;;;;;;;0.37;0.37;;;10.60;99.90;;;;;;7396375;19;20564;-75
2023/12/26 02:26:38;;;;;;;0.40;0.40;;;10.70;99.90;;;;;;7396867;19;20149;-74
2023/12/26 02:29:06;;;;;;;0.33;0.33;;;10.60;99.90;;;;;;7395503;19;20628;-74
2023/12/26 02:31:32;;;;;;;0.50;0.37;;;10.60;99.90;;;;;;7399704;19;20146;-74
2023/12/26 02:33:58;;;;;;;0.50;0.50;;;10.70;99.90;;;;;;7397623;19;20138;-74
2023/12/26 02:36:25;;;;;;;0.30;0.30;;;10.70;99.90;;;;;;7396215;19;20142;-74
2023/12/26 02:38:50;;;;;;;0.40;0.40;;;10.60;99.90;;;;;;7396662;19;20213;-74
2023/12/26 02:41:16;;;;;;;0.43;0.43;;;10.60;99.90;;;;;;7392071;19;20139;-73
2023/12/26 02:43:42;;;;;;;0.50;0.40;;;10.70;99.90;;;;;;7396606;19;20142;-75
2023/12/26 02:46:07;;;;;;;0.50;0.50;;;10.80;99.90;;;;;;7393507;19;20144;-75
2023/12/26 02:48:33;;;;;;;1.03;0.50;;;10.70;99.90;;;;;;7399212;19;20147;-74
2023/12/26 02:50:59;;;;;;;0.30;0.30;;;10.70;99.90;;;;;;7393536;19;20632;-75
2023/12/26 02:53:25;;;;;;;0.37;0.37;;;10.70;99.90;;;;;;7395261;19;20146;-75
2023/12/26 02:55:52;;;;;;;0.65;0.30;;;10.70;99.90;;;;;;7396762;19;20131;-74
2023/12/26 02:58:19;;;;;;;0.43;0.43;;;10.80;99.90;;;;;;7395774;19;20164;-75
2023/12/26 03:00:46;;;;;;;0.30;0.30;;;10.80;99.90;;;;;;7394359;19;20279;-75
2023/12/26 03:03:12;;;;;;;0.30;0.23;;;10.70;99.90;;;;;;7394068;19;20151;-75
2023/12/26 03:05:37;;;;;;;0.40;0.40;;;10.60;99.90;;;;;;7391770;19;20217;-74
2023/12/26 03:08:03;;;;;;;4.73;0.40;;;10.80;99.90;;;;;;7395024;19;20135;-75
2023/12/26 03:10:29;;;;;;;0.63;0.43;;;10.80;99.90;;;;;;7396097;19;20146;-75
2023/12/26 03:12:55;;;;;;;0.97;0.77;;;10.80;99.90;;;;;;7397587;19;20150;-75
2023/12/26 03:15:21;;;;;;;0.60;0.40;;;10.80;99.90;;;;;;7396609;19;20158;-75
2023/12/26 03:17:46;;;;;;;0.30;0.30;;;10.70;99.90;;;;;;7397266;19;20169;-74
2023/12/26 03:20:12;;;;;;;0.73;0.40;;;10.40;99.90;;;;;;7391764;19;20234;-74
2023/12/26 03:22:40;;;;;;;0.20;0.20;;;10.60;99.90;;;;;;7395229;19;20142;-75
2023/12/26 03:25:07;;;;;;;0.57;0.40;;;10.60;99.90;;;;;;7395037;19;20209;-75
2023/12/26 03:27:33;;;;;;;0.30;0.30;;;10.50;99.90;;;;;;7395728;19;20162;-76
2023/12/26 03:29:59;;;;;;;0.20;0.20;;;10.50;99.90;;;;;;7394533;19;20885;-76
2023/12/26 03:32:25;;;;;;;1.37;0.47;;;10.50;99.90;;;;;;7398005;19;20137;-75
2023/12/26 03:34:51;;;;;;;0.50;0.40;;;10.60;99.90;;;;;;7393934;19;20137;-76
2023/12/26 03:37:17;;;;;;;1.03;0.43;;;10.70;99.90;;;;;;7396415;19;20142;-75
2023/12/26 03:39:42;;;;;;;0.77;0.70;;;10.70;99.90;;;;;;7391658;19;20162;-75
2023/12/26 03:42:08;;;;;;;0.38;0.38;;;10.70;99.90;;;;;;7394000;19;20214;-75
2023/12/26 03:44:35;;;;;;;0.20;0.20;;;10.60;99.90;;;;;;7394266;19;20155;-75
2023/12/26 03:47:01;;;;;;;0.40;0.40;;;10.70;99.90;;;;;;7393726;19;20514;-75
2023/12/26 03:49:26;;;;;;;0.40;0.40;;;10.80;99.90;;;;;;7391861;19;20150;-75
2023/12/26 03:51:52;;;;;;;0.97;0.57;;;10.70;99.90;;;;;;7394421;19;21006;-74
2023/12/26 03:54:19;;;;;;;0.30;0.30;;;10.90;99.90;;;;;;7392752;19;20144;-75
2023/12/26 03:56:45;;;;;;;0.30;0.30;;;10.70;99.90;;;;;;7395582;19;20130;-74
2023/12/26 03:59:11;;;;;;;0.73;0.40;;;10.90;99.90;;;;;;7390732;19;20141;-74
2023/12/26 04:01:37;;;;;;;0.30;0.30;;;11.00;99.90;;;;;;7396012;19;20139;-75
2023/12/26 04:04:03;;;;;;;0.40;0.40;;;10.70;99.90;;;;;;7391855;19;20508;-74
2023/12/26 04:06:29;;;;;;;1.07;0.50;;;10.90;99.90;;;;;;7393654;19;20154;-75
2023/12/26 04:08:55;;;;;;;0.50;0.50;;;11.00;99.90;;;;;;7391027;19;20131;-74
2023/12/26 04:11:21;;;;;;;0.20;0.20;;;11.00;99.90;;;;;;7395255;19;20164;-75
2023/12/26 04:13:47;;;;;;;1.00;0.47;;;10.90;99.90;;;;;;7391999;19;20131;-74
2023/12/26 04:16:12;;;;;;;0.63;0.57;;;11.00;99.90;;;;;;7392911;19;20485;-75
2023/12/26 04:18:38;;;;;;;0.40;0.30;;;11.00;99.90;;;;;;7393578;19;20447;-74
2023/12/26 04:21:04;;;;;;;1.08;0.63;;;10.80;99.90;;;;;;7389640;19;20445;-75
2023/12/26 04:23:30;;;;;;;0.20;0.20;;;10.60;99.90;;;;;;7396368;19;20142;-75
2023/12/26 04:25:56;;;;;;;0.40;0.40;;;10.50;99.90;;;;;;7392011;19;20131;-75
2023/12/26 04:28:22;;;;;;;0.20;0.20;;;10.60;99.90;;;;;;7392314;19;20158;-75
2023/12/26 04:30:48;;;;;;;0.50;0.50;;;10.80;99.90;;;;;;7393693;19;20138;-75
2023/12/26 04:33:14;;;;;;;1.93;0.60;;;10.80;99.90;;;;;;7392293;19;20598;-75
2023/12/26 04:35:40;;;;;;;0.53;0.30;;;10.70;99.90;;;;;;7394208;19;20135;-75
2023/12/26 04:38:06;;;;;;;1.07;0.70;;;10.70;99.90;;;;;;7391397;19;20498;-75
2023/12/26 04:40:32;;;;;;;1.40;0.83;;;10.80;99.90;;;;;;7390788;19;20147;-75
2023/12/26 04:43:08;;;;;;;2.87;0.33;;;10.80;99.90;;;;;;7390660;19;20584;-75
2023/12/26 04:45:36;;;;;;;0.60;0.60;;;10.90;99.90;;;;;;7392675;19;20495;-76
2023/12/26 04:48:07;;;;;;;1.03;0.93;;;10.80;99.90;;;;;;7391865;19;20130;-75
2023/12/26 04:50:34;;;;;;;1.27;0.50;;;10.90;99.90;;;;;;7392621;19;20231;-75
2023/12/26 04:53:01;;;;;;;0.87;0.40;;;11.00;99.90;;;;;;7393521;19;20210;-75
2023/12/26 04:55:27;;;;;;;0.40;0.40;;;11.00;99.90;;;;;;7392473;19;20142;-75
2023/12/26 04:57:52;;;;;;;0.30;0.30;;;10.90;99.90;;;;;;7391921;19;20145;-75
2023/12/26 05:00:18;;;;;;;0.60;0.60;;;10.70;99.90;;;;;;7392125;19;20191;-75
2023/12/26 05:02:44;;;;;;;0.50;0.50;;;10.80;99.90;;;;;;7391553;19;20179;-75
2023/12/26 05:05:10;;;;;;;0.80;0.60;;;10.80;99.90;;;;;;7389673;19;20170;-75
2023/12/26 05:07:35;;;;;;;0.30;0.30;;;10.90;99.90;;;;;;7392515;19;20832;-75
2023/12/26 05:10:01;;;;;;;0.20;0.20;;;10.90;99.90;;;;;;7390743;19;20149;-75
2023/12/26 05:12:28;;;;;;;0.23;0.23;;;10.70;99.90;;;;;;7394128;19;20183;-75
2023/12/26 05:14:53;;;;;;;0.47;0.47;;;10.80;99.90;;;;;;7391254;19;20139;-75
2023/12/26 05:17:19;;;;;;;1.90;0.60;;;10.90;99.90;;;;;;7390507;19;20210;-75
2023/12/26 05:19:45;;;;;;;0.20;0.20;;;10.70;99.90;;;;;;7388475;19;20146;-75
2023/12/26 05:22:11;;;;;;;0.57;0.40;;;10.80;99.90;;;;;;7388444;19;20573;-75
2023/12/26 05:24:37;;;;;;;0.27;0.27;;;10.80;99.90;;;;;;7390466;19;20484;-75
2023/12/26 05:27:03;;;;;;;1.30;0.73;;;10.90;99.90;;;;;;7391252;19;20226;-75
2023/12/26 05:29:29;;;;;;;0.33;0.33;;;10.90;99.90;;;;;;7390307;19;20944;-75
2023/12/26 05:31:55;;;;;;;2.93;0.30;;;10.80;99.90;;;;;;7392476;19;20149;-75
2023/12/26 05:34:21;;;;;;;0.40;0.30;;;10.70;99.90;;;;;;7391736;19;20607;-75
2023/12/26 05:36:46;;;;;;;1.03;0.40;;;10.60;99.90;;;;;;7390295;19;20143;-75
2023/12/26 05:39:12;;;;;;;0.90;0.32;;;10.70;99.90;;;;;;7392092;19;20145;-74
2023/12/26 05:41:41;;;;;;;0.40;0.28;;;10.60;99.90;;;;;;7390619;19;20139;-74
2023/12/26 05:44:06;;;;;;;0.87;0.53;;;10.70;99.90;;;;;;7389622;19;20150;-74
2023/12/26 05:46:32;;;;;;;0.30;0.30;;;10.70;99.90;;;;;;7392099;19;20238;-74
2023/12/26 05:48:58;;;;;;;0.20;0.20;;;10.60;99.90;;;;;;7391436;19;20138;-74
2023/12/26 05:51:27;;;;;;;0.43;0.33;;;10.80;99.90;;;;;;7392337;19;20142;-74
2023/12/26 05:53:53;;;;;;;0.43;0.40;;;10.90;99.90;;;;;;7391308;19;20506;-75
2023/12/26 05:56:19;;;;;;;0.37;0.37;;;10.80;99.90;;;;;;7390015;19;20146;-75
2023/12/26 05:58:45;;;;;;;0.50;0.50;;;10.70;99.90;;;;;;7388891;19;20154;-75
2023/12/26 06:01:11;;;;;;;1.70;0.40;;;10.80;99.90;;;;;;7387675;19;20149;-73
2023/12/26 06:03:38;;;;;;;0.50;0.50;;;10.90;99.90;;;;;;7386075;19;20189;-74
2023/12/26 06:06:13;;;;;;;0.97;0.40;;;10.80;99.90;;;;;;7393405;19;20748;-74
2023/12/26 06:08:41;;;;;;;0.95;0.85;;;10.70;99.90;;;;;;7389803;19;20145;-74
2023/12/26 06:11:08;;;;;;;0.25;0.25;;;10.70;99.90;;;;;;7388053;19;20131;-74
2023/12/26 06:13:34;;;;;;;0.22;0.22;;;10.80;99.90;;;;;;7388953;19;20143;-74
2023/12/26 06:15:59;;;;;;;0.70;0.47;;;10.70;99.90;;;;;;7391979;19;20871;-74
2023/12/26 06:18:25;;;;;;;0.50;0.43;;;10.80;99.90;;;;;;7388204;19;20152;-75
2023/12/26 06:20:51;;;;;;;0.27;0.27;;;10.90;99.90;;;;;;7387206;19;20146;-74
2023/12/26 06:23:16;;;;;;;0.47;0.40;;;10.90;99.90;;;;;;7390585;19;20135;-75
2023/12/26 06:25:42;;;;;;;1.17;0.47;;;10.70;99.90;;;;;;7390749;19;20634;-75
2023/12/26 06:28:08;;;;;;;0.63;0.63;;;10.80;99.90;;;;;;7389072;19;20133;-75
2023/12/26 06:30:34;;;;;;;0.35;0.30;;;10.80;99.90;;;;;;7391582;19;20134;-74
2023/12/26 06:33:00;;;;;;;0.30;0.30;;;10.80;99.90;;;;;;7397359;19;20133;-74
2023/12/26 06:35:26;;;;;;;0.37;0.33;;;10.60;99.90;;;;;;7394932;19;20205;-74
2023/12/26 06:37:51;;;;;;;2.00;0.45;;;10.80;99.90;;;;;;7397722;19;20127;-74
2023/12/26 06:40:17;;;;;;;0.80;0.73;;;10.70;99.90;;;;;;7393279;19;20139;-74
2023/12/26 06:42:43;;;;;;;0.40;0.40;;;10.70;99.90;;;;;;7394365;19;20127;-74
2023/12/26 06:45:09;;;;;;;0.20;0.20;;;10.80;99.90;;;;;;7394184;19;20150;-74
2023/12/26 06:47:35;;;;;;;1.30;0.30;;;10.80;99.90;;;;;;7395306;19;20137;-74
2023/12/26 06:50:00;;;;;;;0.23;0.23;;;10.90;99.90;;;;;;7395506;19;20533;-74
2023/12/26 06:52:26;;;;;;;0.43;0.43;;;10.80;99.90;;;;;;7395541;19;20138;-74
2023/12/26 06:54:52;;;;;;;2.20;0.97;;;10.70;99.90;;;;;;7395454;19;20202;-74
2023/12/26 06:57:18;;;;;;;0.30;0.30;;;10.70;99.90;;;;;;7395073;19;20139;-74
2023/12/26 06:59:45;;;;;;;0.50;0.50;;;10.70;99.90;;;;;;7392948;19;20146;-74
2023/12/26 07:02:11;;;;;;;0.40;0.40;;;10.50;99.90;;;;;;7395650;19;20243;-74
2023/12/26 07:04:36;;;;;;;1.60;0.67;;;10.70;99.90;;;;;;7393807;19;20541;-74
2023/12/26 07:07:02;;;;;;;0.40;0.40;;;10.60;99.90;;;;;;7394860;19;20504;-75
2023/12/26 07:09:28;;;;;;;0.28;0.28;;;10.70;99.90;;;;;;7391378;19;20171;-74
2023/12/26 07:11:54;;;;;;;1.03;0.77;;;10.70;99.90;;;;;;7395618;19;20132;-74
2023/12/26 07:14:19;;;;;;;0.38;0.38;;;10.60;99.90;;;;;;7393402;19;20581;-74
2023/12/26 07:16:46;;;;;;;0.30;0.30;;;10.80;99.90;;;;;;7393781;19;20159;-74
2023/12/26 07:19:12;;;;;;;0.40;0.40;;;10.80;99.90;;;;;;7393890;19;20122;-75
2023/12/26 07:21:37;;;;;;;0.40;0.40;;;10.90;99.90;;;;;;7393275;19;20127;-76
2023/12/26 07:24:04;;;;;;;0.30;0.30;;;11.00;99.90;;;;;;7396050;19;20127;-75
2023/12/26 07:26:29;;;;;;;0.53;0.53;;;10.90;99.90;;;;;;7396742;19;20477;-76
2023/12/26 07:28:55;;;;;;;0.27;0.23;;;10.70;99.90;;;;;;7393126;19;20150;-75
2023/12/26 07:31:22;;;;;;;0.43;0.30;;;10.90;99.90;;;;;;7394749;19;20480;-76
2023/12/26 07:33:51;;;;;;;0.30;0.30;;;10.90;99.90;;;;;;7392012;19;20727;-76
2023/12/26 07:36:17;;;;;;;0.47;0.47;;;10.90;99.90;;;;;;7392847;19;20145;-75
2023/12/26 07:38:44;;;;;;;1.00;0.73;;;10.80;99.90;;;;;;7392546;19;20209;-75
2023/12/26 07:41:10;;;;;;;0.40;0.40;;;10.80;99.90;;;;;;7392625;19;20595;-75
2023/12/26 07:43:36;;;;;;;0.53;0.50;;;10.70;99.90;;;;;;7395914;19;20210;-76
2023/12/26 07:46:02;;;;;;;1.33;0.50;;;10.80;99.90;;;;;;7393246;19;20134;-75
2023/12/26 07:48:28;;;;;;;1.70;0.50;;;10.90;99.90;;;;;;7391435;19;20154;-75
2023/12/26 07:50:54;;;;;;;0.57;0.37;;;10.90;99.90;;;;;;7392503;19;20202;-76
2023/12/26 07:53:20;;;;;;;2.53;0.40;;;10.90;99.90;;;;;;7393618;19;20151;-74
2023/12/26 07:55:46;;;;;;;0.30;0.30;;;11.00;99.90;;;;;;7392959;19;20476;-75
2023/12/26 07:58:12;;;;;;;1.17;0.40;;;11.00;99.90;;;;;;7391534;19;20139;-74
2023/12/26 08:00:37;;;;;;;0.40;0.40;;;10.90;99.90;;;;;;7391561;19;20150;-75
2023/12/26 08:03:06;;;;;;;0.70;0.70;;;10.80;99.90;;;;;;7392122;19;20139;-76
2023/12/26 08:05:32;;;;;;;0.20;0.20;;;10.80;99.90;;;;;;7391336;19;20153;-75
2023/12/26 08:07:57;;;;;;;0.53;0.53;;;10.70;99.90;;;;;;7394294;19;20130;-75
2023/12/26 08:10:25;;;;;;;1.40;0.50;;;10.60;99.90;;;;;;7392405;19;20134;-75
2023/12/26 08:12:51;;;;;;;0.93;0.50;;;10.90;99.90;;;;;;7391818;19;20134;-74
2023/12/26 08:15:17;;;;;;;0.30;0.30;;;11.00;99.90;;;;;;7392980;19;20142;-75
2023/12/26 08:17:43;;;;;;;0.30;0.30;;;10.90;99.90;;;;;;7394949;19;20607;-74
2023/12/26 08:20:10;;;;;;;0.73;0.73;;;10.80;99.90;;;;;;7390953;19;20145;-75
2023/12/26 08:22:36;;;;;;;0.30;0.30;;;10.70;99.90;;;;;;7393303;19;20163;-76
2023/12/26 08:25:02;;;;;;;2.53;0.50;;;10.60;99.90;;;;;;7392198;19;20150;-76
2023/12/26 08:27:28;;;;;;;0.40;0.40;;;10.70;99.90;;;;;;7392837;19;20461;-75
2023/12/26 08:29:53;;;;;;;1.10;0.40;;;10.90;99.90;;;;;;7392601;19;20167;-75
2023/12/26 08:32:19;;;;;;;0.30;0.30;;;11.00;99.90;;;;;;7392575;19;20146;-76
2023/12/26 08:34:45;;;;;;;1.20;0.80;;;10.90;99.90;;;;;;7393921;19;20139;-75
2023/12/26 08:37:12;;;;;;;0.40;0.40;;;11.00;99.90;;;;;;7393561;19;20577;-75
2023/12/26 08:39:38;;;;;;;0.43;0.43;;;11.00;99.90;;;;;;7390433;19;20154;-75
2023/12/26 08:42:04;;;;;;;0.70;0.60;;;10.90;99.90;;;;;;7393433;19;20145;-74
2023/12/26 08:44:30;;;;;;;1.20;0.37;;;10.90;99.90;;;;;;7392415;19;20202;-74
2023/12/26 08:46:56;;;;;;;1.63;0.70;;;11.10;99.90;;;;;;7394548;19;20143;-74
2023/12/26 08:49:22;;;;;;;1.10;0.50;;;11.00;99.90;;;;;;7391148;19;20139;-74
2023/12/26 08:51:51;;;;;;;0.70;0.38;;;11.10;99.90;;;;;;7392825;19;20139;-75
2023/12/26 08:54:16;;;;;;;0.30;0.30;;;11.30;99.90;;;;;;7391626;19;20209;-77
2023/12/26 08:56:42;;;;;;;0.40;0.40;;;11.30;99.90;;;;;;7389891;19;20180;-75
2023/12/26 08:59:08;;;;;;;0.50;0.50;;;11.30;99.90;;;;;;7388725;19;20190;-76
2023/12/26 09:01:35;;;;;;;0.73;0.73;;;11.10;99.90;;;;;;7392255;19;20818;-74
2023/12/26 09:04:05;;;;;;;0.57;0.50;;;11.10;99.90;;;;;;7390223;19;20170;-75
2023/12/26 09:06:31;;;;;;;1.80;0.57;;;11.30;99.90;;;;;;7392889;19;20140;-76
2023/12/26 09:08:56;;;;;;;0.50;0.40;;;11.30;99.90;;;;;;7393075;19;20214;-74
2023/12/26 09:11:22;;;;;;;0.40;0.40;;;11.40;99.90;;;;;;7390553;19;20142;-75
2023/12/26 09:13:48;;;;;;;1.42;0.90;;;11.30;99.90;;;;;;7391195;19;20131;-75
2023/12/26 09:16:14;;;;;;;1.43;1.00;;;11.20;99.90;;;;;;7389829;19;20149;-76
2023/12/26 09:18:43;;;;;;;0.63;0.63;;;11.30;99.90;;;;;;7389782;19;20334;-75
2023/12/26 09:21:09;;;;;;;1.13;0.60;;;11.30;99.90;;;;;;7390843;19;20606;-76
2023/12/26 09:23:35;;;;;;;0.60;0.30;;;11.50;99.90;;;;;;7390657;19;20142;-76
2023/12/26 09:26:04;;;;;;;0.40;0.40;;;11.30;99.90;;;;;;7390092;19;20205;-75
2023/12/26 09:28:31;;;;;;;0.77;0.77;;;11.40;99.90;;;;;;7388180;19;20542;-75
2023/12/26 09:30:57;;;;;;;0.40;0.30;;;11.20;99.90;;;;;;7392668;19;20126;-76
2023/12/26 09:33:24;;;;;;;0.85;0.55;;;11.30;99.90;;;;;;7387525;19;20482;-75
2023/12/26 09:35:50;;;;;;;0.45;0.45;;;11.40;99.90;;;;;;7388599;19;20173;-75
2023/12/26 09:38:16;;;;;;;0.57;0.50;;;11.50;99.90;;;;;;7386226;19;20620;-76
2023/12/26 09:40:42;;;;;;;0.57;0.40;;;11.60;99.90;;;;;;7384948;19;20145;-75
2023/12/26 09:43:08;;;;;;;0.40;0.40;;;11.50;99.90;;;;;;7389497;19;20150;-75
2023/12/26 09:45:34;;;;;;;1.37;0.70;;;11.60;99.90;;;;;;7390018;19;20186;-74
2023/12/26 09:48:00;;;;;;;0.40;0.40;;;11.50;99.90;;;;;;7389009;19;20146;-74
2023/12/26 09:50:27;;;;;;;1.13;0.60;;;11.70;99.90;;;;;;7391985;19;20141;-75
2023/12/26 09:53:01;;;;;;;1.60;0.50;;;11.70;99.90;;;;;;7389165;19;20145;-74
2023/12/26 09:55:27;;;;;;;0.30;0.30;;;11.30;99.90;;;;;;7390201;19;20150;-75
2023/12/26 09:57:56;;;;;;;0.40;0.40;;;11.40;99.90;;;;;;7387615;19;20146;-75
2023/12/26 10:00:25;;;;;;;1.02;0.43;;;11.20;99.90;;;;;;7386757;19;20457;-75
2023/12/26 10:02:51;;;;;;;0.25;0.25;;;11.40;99.90;;;;;;7391467;19;20142;-75
2023/12/26 10:05:17;;;;;;;0.40;0.37;;;11.50;99.90;;;;;;7389843;19;20151;-75
2023/12/26 10:07:43;;;;;;;2.77;0.47;;;11.60;99.90;;;;;;7396073;19;20176;-75
2023/12/26 10:10:19;;;;;;;0.40;0.40;;;11.40;99.90;;;;;;7394851;19;20142;-76
2023/12/26 10:12:49;;;;;;;0.30;0.30;;;11.30;99.90;;;;;;7394527;19;20146;-75
2023/12/26 10:15:15;;;;;;;0.57;0.50;;;11.40;99.90;;;;;;7395297;19;20498;-76
2023/12/26 10:17:44;;;;;;;0.30;0.30;;;11.50;99.90;;;;;;7394982;19;20158;-76
2023/12/26 10:20:13;;;;;;;0.30;0.30;;;11.50;99.90;;;;;;7395844;19;20225;-76
2023/12/26 10:22:44;;;;;;;0.20;0.20;;;11.60;99.90;;;;;;7395102;19;20150;-75
2023/12/26 10:25:13;;;;;;;0.30;0.30;;;11.70;99.90;;;;;;7394843;19;20145;-76
2023/12/26 10:27:40;;;;;;;2.47;0.30;;;11.80;99.90;;;;;;7395642;19;20154;-76
2023/12/26 10:30:06;;;;;;;0.30;0.30;;;11.60;99.90;;;;;;7397007;19;20596;-76
2023/12/26 10:32:32;;;;;;;0.70;0.40;;;11.50;99.90;;;;;;7396625;19;20147;-76
2023/12/26 10:35:19;;;;;;;1.52;0.50;;;11.50;99.90;;;;;;7393731;19;20210;-76
2023/12/26 10:37:44;;;;;;;0.30;0.30;;;11.80;99.90;;;;;;7393918;19;20158;-76
2023/12/26 10:40:11;;;;;;;0.20;0.20;;;11.80;99.90;;;;;;7392116;19;20148;-76
2023/12/26 10:42:40;;;;;;;0.47;0.30;;;11.70;99.90;;;;;;7395468;19;20142;-75
2023/12/26 10:45:08;;;;;;;0.40;0.32;;;11.60;99.90;;;;;;7394057;19;20167;-76
2023/12/26 10:47:34;;;;;;;0.30;0.30;;;11.70;99.90;;;;;;7395383;19;20611;-75
2023/12/26 10:50:02;;;;;;;0.30;0.30;;;11.80;99.90;;;;;;7395767;19;20580;-76
2023/12/26 10:52:29;;;;;;;0.32;0.30;;;11.80;99.90;;;;;;7393278;19;20130;-75
2023/12/26 10:55:04;;;;;;;0.60;0.40;;;11.90;99.90;;;;;;7394516;19;20138;-76
2023/12/26 10:57:32;;;;;;;0.50;0.50;;;11.90;99.90;;;;;;7394513;19;20145;-76
2023/12/26 11:00:48;;;;;;;0.60;0.50;;;11.90;99.90;;;;;;7395983;19;20225;-76
2023/12/26 13:52:11;;;;;;;0.20;0.20;;;11.80;99.90;;;;;;7391463;19;20163;-73
2023/12/26 13:55:14;;;;;;;0.65;0.47;;;12.00;99.90;;;;;;7389600;19;20607;-73
2023/12/26 13:58:17;;;;;;;0.20;0.20;;;12.00;99.90;;;;;;7390149;19;20162;-73
2023/12/26 14:01:21;;;;;;;0.30;0.30;;;12.00;99.90;;;;;;7387625;19;20158;-73
2023/12/26 14:04:24;;;;;;;0.30;0.30;;;11.80;99.90;;;;;;7387407;19;20186;-72
2023/12/26 14:07:28;;;;;;;0.45;0.45;;;12.00;99.90;;;;;;7383599;19;20483;-73
2023/12/26 14:10:31;;;;;;;0.63;0.50;;;11.90;99.90;;;;;;7386424;19;20154;-73
2023/12/26 14:13:34;;;;;;;1.03;0.90;;;11.90;99.90;;;;;;7387107;19;20489;-76
2023/12/26 14:16:38;;;;;;;0.88;0.82;;;11.90;99.90;;;;;;7387960;19;20207;-74
2023/12/26 14:19:41;;;;;;;9.00;4.73;;;11.90;99.90;;;;;;7389906;19;20150;-76
2023/12/26 14:22:44;;;;;;;1.37;0.83;;;12.20;99.90;;;;;;7388348;19;20136;-74
2023/12/26 14:25:47;;;;;;;0.30;0.30;;;12.10;99.90;;;;;;7390209;19;20134;-77
2023/12/26 14:28:50;;;;;;;0.55;0.40;;;12.00;99.90;;;;;;7390037;19;20210;-75
2023/12/26 14:31:54;;;;;;;0.30;0.30;;;12.00;99.90;;;;;;7384517;19;20146;-74
2023/12/26 14:34:58;;;;;;;1.08;0.60;;;11.90;99.90;;;;;;7387387;19;20157;-74
2023/12/26 14:38:02;;;;;;;0.35;0.30;;;12.10;99.90;;;;;;7389112;19;20166;-74
2023/12/26 14:40:28;;;;;;;0.30;0.30;;;12.00;99.90;;;;;;7386172;19;21697;-75
2023/12/26 14:42:54;;;;;;;0.30;0.30;;;11.90;99.90;;;;;;7382816;19;20139;-74
2023/12/26 14:45:19;;;;;;;0.40;0.40;;;12.00;99.90;;;;;;7389312;19;20633;-75
2023/12/26 14:47:45;;;;;;;0.63;0.63;;;12.10;99.90;;;;;;7386198;19;20239;-75
2023/12/26 14:50:11;;;;;;;0.50;0.43;;;12.10;99.90;;;;;;7386069;19;20131;-76
2023/12/26 14:52:36;;;;;;;0.73;0.38;;;12.10;99.90;;;;;;7394029;19;20131;-74
2023/12/26 14:55:03;;;;;;;1.17;0.80;;;12.00;99.90;;;;;;7397624;19;20552;-75
2023/12/26 14:57:29;;;;;;;0.30;0.30;;;11.80;99.90;;;;;;7394653;19;20187;-75
2023/12/26 14:59:54;;;;;;;0.40;0.40;;;11.80;99.90;;;;;;7391103;19;20150;-76
2023/12/26 15:02:24;;;;;;;0.40;0.40;;;11.80;99.90;;;;;;7397626;19;20193;-75
2023/12/26 15:04:50;;;;;;;0.40;0.40;;;11.80;99.90;;;;;;7394676;19;20229;-77
2023/12/26 15:07:17;;;;;;;0.32;0.32;;;11.80;99.90;;;;;;7392765;19;20150;-75
2023/12/26 15:09:42;;;;;;;0.28;0.28;;;11.90;99.90;;;;;;7395586;19;20448;-76
2023/12/26 15:12:09;;;;;;;0.40;0.30;;;12.00;99.90;;;;;;7391467;19;20135;-77
2023/12/26 15:14:35;;;;;;;1.17;0.50;;;12.00;99.90;;;;;;7395108;19;20138;-76
2023/12/26 15:17:01;;;;;;;0.80;0.50;;;11.90;99.90;;;;;;7395047;19;20567;-77
2023/12/26 15:19:26;;;;;;;0.30;0.30;;;12.00;99.90;;;;;;7396932;19;20310;-77
2023/12/26 15:21:52;;;;;;;0.40;0.40;;;12.00;99.90;;;;;;7396066;19;20155;-79
2023/12/26 15:24:18;;;;;;;0.30;0.30;;;12.10;99.90;;;;;;7396528;19;20130;-78
2023/12/26 15:26:44;;;;;;;0.98;0.85;;;12.10;99.90;;;;;;7390273;19;20566;-75
2023/12/26 15:29:10;;;;;;;0.30;0.30;;;12.00;99.90;;;;;;7392663;19;20155;-77
2023/12/26 15:31:36;;;;;;;0.65;0.55;;;12.10;99.90;;;;;;7395828;19;20131;-76
2023/12/26 15:34:02;;;;;;;0.80;0.60;;;12.00;99.90;;;;;;7394011;19;20126;-75
2023/12/26 15:36:28;;;;;;;0.63;0.50;;;11.90;99.90;;;;;;7397640;19;20226;-77
2023/12/26 15:38:54;;;;;;;0.50;0.40;;;12.00;99.90;;;;;;7394603;19;20135;-75
2023/12/26 15:41:23;;;;;;;0.40;0.40;;;12.00;99.90;;;;;;7391375;19;20162;-75
2023/12/26 15:43:49;;;;;;;1.13;0.80;;;12.10;99.90;;;;;;7395470;19;20135;-78